sensor_id;sensor_type;location;lat;lon;timestamp;pressure;altitude;pressure_sealevel;temperature;humidity
44934;BME280;30667;43.614;1.442;2023-02-16T00:01:19;101303.53;;;7.82;100.00
44934;BME280;30667;43.614;1.442;2023-02-16T00:03:45;101288.41;;;7.81;100.00
44934;BME280;30667;43.614;1.442;2023-02-16T00:06:10;101287.81;;;7.79;100.00
44934;BME280;30667;43.614;1.442;2023-02-16T00:08:50;101291.53;;;7.78;100.00
44934;BME280;30667;43.614;1.442;2023-02-16T00:11:23;101289.06;;;7.77;100.00
44934;BME280;30667;43.614;1.442;2023-02-16T00:14:10;101286.03;;;7.73;100.00
44934;BME280;30667;43.614;1.442;2023-02-16T00:16:36;101291.84;;;7.70;100.00
44934;BME280;30667;43.614;1.442;2023-02-16T00:19:18;101289.38;;;7.69;100.00
44934;BME280;30667;43.614;1.442;2023-02-16T00:21:44;101279.28;;;7.64;100.00
44934;BME280;30667;43.614;1.442;2023-02-16T00:24:09;101288.00;;;7.66;100.00
44934;BME280;30667;43.614;1.442;2023-02-16T00:26:35;101293.38;;;7.66;100.00
44934;BME280;30667;43.614;1.442;2023-02-16T00:29:00;101305.78;;;7.67;100.00
44934;BME280;30667;43.614;1.442;2023-02-16T00:31:27;101298.16;;;7.64;100.00
44934;BME280;30667;43.614;1.442;2023-02-16T00:33:56;101301.28;;;7.61;100.00
44934;BME280;30667;43.614;1.442;2023-02-16T00:36:22;101298.47;;;7.56;100.00
44934;BME280;30667;43.614;1.442;2023-02-16T00:38:47;101290.75;;;7.59;100.00
44934;BME280;30667;43.614;1.442;2023-02-16T00:41:23;101291.22;;;7.56;100.00
44934;BME280;30667;43.614;1.442;2023-02-16T00:44:38;101294.16;;;7.55;100.00
44934;BME280;30667;43.614;1.442;2023-02-16T00:47:39;101288.38;;;7.51;100.00
44934;BME280;30667;43.614;1.442;2023-02-16T00:50:33;101288.13;;;7.53;100.00
44934;BME280;30667;43.614;1.442;2023-02-16T00:52:59;101291.28;;;7.50;100.00
44934;BME280;30667;43.614;1.442;2023-02-16T00:55:29;101285.91;;;7.50;100.00
44934;BME280;30667;43.614;1.442;2023-02-16T01:00:52;101299.81;;;7.46;100.00
44934;BME280;30667;43.614;1.442;2023-02-16T01:03:22;101290.19;;;7.39;100.00
44934;BME280;30667;43.614;1.442;2023-02-16T01:05:48;101284.81;;;7.39;100.00
44934;BME280;30667;43.614;1.442;2023-02-16T01:08:15;101284.03;;;7.32;100.00
44934;BME280;30667;43.614;1.442;2023-02-16T01:11:04;101283.00;;;7.33;100.00
44934;BME280;30667;43.614;1.442;2023-02-16T01:13:37;101278.66;;;7.32;100.00
44934;BME280;30667;43.614;1.442;2023-02-16T01:16:03;101277.84;;;7.31;100.00
44934;BME280;30667;43.614;1.442;2023-02-16T01:18:28;101290.31;;;7.25;100.00
44934;BME280;30667;43.614;1.442;2023-02-16T01:20:54;101292.94;;;7.14;100.00
44934;BME280;30667;43.614;1.442;2023-02-16T01:23:19;101296.88;;;7.11;100.00
44934;BME280;30667;43.614;1.442;2023-02-16T01:25:44;101291.13;;;7.07;100.00
44934;BME280;30667;43.614;1.442;2023-02-16T01:28:19;101287.00;;;7.05;100.00
44934;BME280;30667;43.614;1.442;2023-02-16T01:30:45;101281.94;;;7.15;100.00
44934;BME280;30667;43.614;1.442;2023-02-16T01:33:10;101281.34;;;7.13;100.00
44934;BME280;30667;43.614;1.442;2023-02-16T01:35:36;101283.81;;;7.15;100.00
44934;BME280;30667;43.614;1.442;2023-02-16T01:38:02;101286.28;;;7.16;100.00
44934;BME280;30667;43.614;1.442;2023-02-16T01:43:03;101286.13;;;7.11;100.00
44934;BME280;30667;43.614;1.442;2023-02-16T01:45:37;101280.75;;;7.11;100.00
44934;BME280;30667;43.614;1.442;2023-02-16T01:48:06;101290.47;;;7.12;100.00
44934;BME280;30667;43.614;1.442;2023-02-16T01:50:47;101290.31;;;7.07;100.00
44934;BME280;30667;43.614;1.442;2023-02-16T01:53:47;101289.63;;;6.93;100.00
44934;BME280;30667;43.614;1.442;2023-02-16T01:56:44;101291.72;;;6.91;100.00
44934;BME280;30667;43.614;1.442;2023-02-16T02:02:11;101293.56;;;6.90;100.00
44934;BME280;30667;43.614;1.442;2023-02-16T02:04:50;101301.88;;;6.89;100.00
44934;BME280;30667;43.614;1.442;2023-02-16T02:10:30;101294.38;;;6.72;100.00
44934;BME280;30667;43.614;1.442;2023-02-16T02:13:06;101298.38;;;6.63;100.00
44934;BME280;30667;43.614;1.442;2023-02-16T02:15:34;101298.47;;;6.50;100.00
44934;BME280;30667;43.614;1.442;2023-02-16T02:17:59;101292.72;;;6.46;100.00
44934;BME280;30667;43.614;1.442;2023-02-16T02:21:31;101287.00;;;6.36;100.00
44934;BME280;30667;43.614;1.442;2023-02-16T02:29:39;101266.44;;;6.48;100.00
44934;BME280;30667;43.614;1.442;2023-02-16T02:32:13;101268.56;;;6.65;100.00
44934;BME280;30667;43.614;1.442;2023-02-16T02:40:28;101268.13;;;6.68;100.00
44934;BME280;30667;43.614;1.442;2023-02-16T02:45:46;101268.56;;;6.65;100.00
44934;BME280;30667;43.614;1.442;2023-02-16T02:48:13;101271.31;;;6.58;100.00
44934;BME280;30667;43.614;1.442;2023-02-16T02:50:58;101274.88;;;6.52;100.00
44934;BME280;30667;43.614;1.442;2023-02-16T02:53:51;101263.59;;;6.43;100.00
44934;BME280;30667;43.614;1.442;2023-02-16T02:56:38;101260.72;;;6.38;100.00
44934;BME280;30667;43.614;1.442;2023-02-16T02:59:23;101264.63;;;6.42;100.00
44934;BME280;30667;43.614;1.442;2023-02-16T03:02:10;101275.91;;;6.51;100.00
44934;BME280;30667;43.614;1.442;2023-02-16T03:04:36;101272.63;;;6.49;100.00
44934;BME280;30667;43.614;1.442;2023-02-16T03:07:03;101275.22;;;6.37;100.00
44934;BME280;30667;43.614;1.442;2023-02-16T03:09:30;101262.25;;;6.27;100.00
44934;BME280;30667;43.614;1.442;2023-02-16T03:11:56;101260.00;;;6.24;100.00
44934;BME280;30667;43.614;1.442;2023-02-16T03:14:46;101261.47;;;6.20;100.00
44934;BME280;30667;43.614;1.442;2023-02-16T03:17:16;101264.81;;;6.15;100.00
44934;BME280;30667;43.614;1.442;2023-02-16T03:20:03;101260.22;;;6.23;100.00
44934;BME280;30667;43.614;1.442;2023-02-16T03:22:49;101259.28;;;6.10;100.00
44934;BME280;30667;43.614;1.442;2023-02-16T03:25:35;101263.28;;;6.26;100.00
44934;BME280;30667;43.614;1.442;2023-02-16T03:28:25;101260.38;;;6.28;100.00
44934;BME280;30667;43.614;1.442;2023-02-16T03:31:14;101259.78;;;6.26;100.00
44934;BME280;30667;43.614;1.442;2023-02-16T03:33:41;101257.91;;;6.26;100.00
44934;BME280;30667;43.614;1.442;2023-02-16T03:36:08;101254.41;;;6.26;100.00
44934;BME280;30667;43.614;1.442;2023-02-16T03:38:34;101260.59;;;6.26;100.00
44934;BME280;30667;43.614;1.442;2023-02-16T03:41:00;101264.31;;;6.32;100.00
44934;BME280;30667;43.614;1.442;2023-02-16T03:43:27;101271.97;;;6.28;100.00
44934;BME280;30667;43.614;1.442;2023-02-16T03:45:53;101274.69;;;6.22;100.00
44934;BME280;30667;43.614;1.442;2023-02-16T03:48:18;101278.03;;;6.17;100.00
44934;BME280;30667;43.614;1.442;2023-02-16T03:50:44;101276.34;;;6.23;100.00
44934;BME280;30667;43.614;1.442;2023-02-16T03:53:09;101279.75;;;6.11;100.00
44934;BME280;30667;43.614;1.442;2023-02-16T03:55:35;101272.09;;;6.08;100.00
44934;BME280;30667;43.614;1.442;2023-02-16T03:58:01;101278.34;;;6.02;100.00
44934;BME280;30667;43.614;1.442;2023-02-16T04:00:27;101281.84;;;6.03;100.00
44934;BME280;30667;43.614;1.442;2023-02-16T04:02:52;101283.13;;;6.00;100.00
44934;BME280;30667;43.614;1.442;2023-02-16T04:05:18;101286.56;;;6.07;100.00
44934;BME280;30667;43.614;1.442;2023-02-16T04:07:43;101287.22;;;6.03;100.00
44934;BME280;30667;43.614;1.442;2023-02-16T04:10:09;101285.94;;;6.12;100.00
44934;BME280;30667;43.614;1.442;2023-02-16T04:12:34;101291.69;;;6.15;100.00
44934;BME280;30667;43.614;1.442;2023-02-16T04:15:14;101297.91;;;6.09;100.00
44934;BME280;30667;43.614;1.442;2023-02-16T04:17:40;101292.75;;;6.14;100.00
44934;BME280;30667;43.614;1.442;2023-02-16T04:20:07;101295.66;;;6.13;100.00
44934;BME280;30667;43.614;1.442;2023-02-16T04:22:33;101288.78;;;6.17;100.00
44934;BME280;30667;43.614;1.442;2023-02-16T04:24:59;101286.72;;;6.19;100.00
44934;BME280;30667;43.614;1.442;2023-02-16T04:27:24;101292.09;;;6.19;100.00
44934;BME280;30667;43.614;1.442;2023-02-16T04:29:49;101287.53;;;6.20;100.00
44934;BME280;30667;43.614;1.442;2023-02-16T04:32:15;101299.09;;;6.20;100.00
44934;BME280;30667;43.614;1.442;2023-02-16T04:34:40;101292.75;;;6.14;100.00
44934;BME280;30667;43.614;1.442;2023-02-16T04:37:06;101296.25;;;6.15;100.00
44934;BME280;30667;43.614;1.442;2023-02-16T04:39:31;101298.72;;;6.16;100.00
44934;BME280;30667;43.614;1.442;2023-02-16T04:41:57;101300.97;;;6.20;100.00
44934;BME280;30667;43.614;1.442;2023-02-16T04:44:22;101295.88;;;6.11;100.00
44934;BME280;30667;43.614;1.442;2023-02-16T04:46:48;101300.81;;;6.14;100.00
44934;BME280;30667;43.614;1.442;2023-02-16T04:49:13;101299.53;;;6.17;100.00
44934;BME280;30667;43.614;1.442;2023-02-16T04:51:39;101301.34;;;6.23;100.00
44934;BME280;30667;43.614;1.442;2023-02-16T04:54:05;101300.09;;;6.26;100.00
44934;BME280;30667;43.614;1.442;2023-02-16T04:56:31;101299.47;;;6.30;100.00
44934;BME280;30667;43.614;1.442;2023-02-16T04:58:56;101303.06;;;6.17;100.00
44934;BME280;30667;43.614;1.442;2023-02-16T05:01:24;101296.19;;;6.22;100.00
44934;BME280;30667;43.614;1.442;2023-02-16T05:03:50;101297.22;;;6.21;100.00
44934;BME280;30667;43.614;1.442;2023-02-16T05:06:16;101300.75;;;6.21;100.00
44934;BME280;30667;43.614;1.442;2023-02-16T05:08:42;101308.22;;;6.19;100.00
44934;BME280;30667;43.614;1.442;2023-02-16T05:11:07;101307.00;;;6.15;100.00
44934;BME280;30667;43.614;1.442;2023-02-16T05:13:51;101312.41;;;6.08;100.00
44934;BME280;30667;43.614;1.442;2023-02-16T05:16:35;101318.03;;;6.00;100.00
44934;BME280;30667;43.614;1.442;2023-02-16T05:19:01;101313.47;;;6.00;100.00
44934;BME280;30667;43.614;1.442;2023-02-16T05:21:26;101317.00;;;5.94;100.00
44934;BME280;30667;43.614;1.442;2023-02-16T05:23:55;101318.22;;;6.05;100.00
44934;BME280;30667;43.614;1.442;2023-02-16T05:26:20;101319.47;;;6.03;100.00
44934;BME280;30667;43.614;1.442;2023-02-16T05:28:46;101327.94;;;5.93;100.00
44934;BME280;30667;43.614;1.442;2023-02-16T05:31:11;101309.56;;;6.03;100.00
44934;BME280;30667;43.614;1.442;2023-02-16T05:33:36;101307.63;;;6.10;100.00
44934;BME280;30667;43.614;1.442;2023-02-16T05:36:02;101311.97;;;6.11;100.00
44934;BME280;30667;43.614;1.442;2023-02-16T05:38:27;101319.47;;;6.03;100.00
44934;BME280;30667;43.614;1.442;2023-02-16T05:40:53;101316.38;;;5.99;100.00
44934;BME280;30667;43.614;1.442;2023-02-16T05:43:18;101321.16;;;5.97;100.00
44934;BME280;30667;43.614;1.442;2023-02-16T05:45:43;101312.25;;;5.96;100.00
44934;BME280;30667;43.614;1.442;2023-02-16T05:48:09;101309.97;;;6.00;100.00
44934;BME280;30667;43.614;1.442;2023-02-16T05:50:34;101311.19;;;6.04;100.00
44934;BME280;30667;43.614;1.442;2023-02-16T05:53:00;101317.63;;;5.96;100.00
44934;BME280;30667;43.614;1.442;2023-02-16T05:55:25;101317.41;;;5.98;100.00
44934;BME280;30667;43.614;1.442;2023-02-16T05:57:50;101310.81;;;5.94;100.00
44934;BME280;30667;43.614;1.442;2023-02-16T06:00:16;101320.31;;;6.03;100.00
44934;BME280;30667;43.614;1.442;2023-02-16T06:02:41;101328.56;;;5.95;100.00
44934;BME280;30667;43.614;1.442;2023-02-16T06:05:07;101330.63;;;5.99;100.00
44934;BME280;30667;43.614;1.442;2023-02-16T06:07:32;101329.22;;;5.97;100.00
44934;BME280;30667;43.614;1.442;2023-02-16T06:09:57;101330.81;;;6.05;100.00
44934;BME280;30667;43.614;1.442;2023-02-16T06:12:23;101331.25;;;5.95;100.00
44934;BME280;30667;43.614;1.442;2023-02-16T06:14:49;101320.97;;;5.85;100.00
44934;BME280;30667;43.614;1.442;2023-02-16T06:17:14;101325.06;;;5.94;100.00
44934;BME280;30667;43.614;1.442;2023-02-16T06:19:39;101326.09;;;5.93;100.00
44934;BME280;30667;43.614;1.442;2023-02-16T06:22:05;101333.94;;;5.95;100.00
44934;BME280;30667;43.614;1.442;2023-02-16T06:24:30;101333.53;;;5.91;100.00
44934;BME280;30667;43.614;1.442;2023-02-16T06:26:56;101334.34;;;5.92;100.00
44934;BME280;30667;43.614;1.442;2023-02-16T06:29:21;101333.53;;;5.91;100.00
44934;BME280;30667;43.614;1.442;2023-02-16T06:31:47;101335.19;;;5.99;100.00
44934;BME280;30667;43.614;1.442;2023-02-16T06:34:12;101338.09;;;5.91;100.00
44934;BME280;30667;43.614;1.442;2023-02-16T06:36:37;101339.13;;;5.96;100.00
44934;BME280;30667;43.614;1.442;2023-02-16T06:39:03;101339.53;;;6.00;100.00
44934;BME280;30667;43.614;1.442;2023-02-16T06:41:28;101345.53;;;5.89;100.00
44934;BME280;30667;43.614;1.442;2023-02-16T06:44:04;101346.81;;;5.79;100.00
44934;BME280;30667;43.614;1.442;2023-02-16T06:46:29;101346.41;;;5.76;100.00
44934;BME280;30667;43.614;1.442;2023-02-16T06:48:55;101344.13;;;5.79;100.00
44934;BME280;30667;43.614;1.442;2023-02-16T06:51:21;101340.19;;;5.82;100.00
44934;BME280;30667;43.614;1.442;2023-02-16T06:53:46;101348.44;;;5.80;100.00
44934;BME280;30667;43.614;1.442;2023-02-16T06:56:12;101347.28;;;5.70;100.00
44934;BME280;30667;43.614;1.442;2023-02-16T06:58:37;101351.19;;;5.67;100.00
44934;BME280;30667;43.614;1.442;2023-02-16T07:01:03;101346.63;;;5.81;100.00
44934;BME280;30667;43.614;1.442;2023-02-16T07:03:28;101353.56;;;5.95;100.00
44934;BME280;30667;43.614;1.442;2023-02-16T07:05:54;101361.03;;;6.00;100.00
44934;BME280;30667;43.614;1.442;2023-02-16T07:08:19;101366.66;;;5.78;100.00
44934;BME280;30667;43.614;1.442;2023-02-16T07:10:46;101370.44;;;5.57;100.00
44934;BME280;30667;43.614;1.442;2023-02-16T07:13:12;101374.75;;;5.58;100.00
44934;BME280;30667;43.614;1.442;2023-02-16T07:15:37;101379.09;;;5.73;100.00
44934;BME280;30667;43.614;1.442;2023-02-16T07:18:03;101379.88;;;5.80;100.00
44934;BME280;30667;43.614;1.442;2023-02-16T07:20:29;101381.94;;;5.78;100.00
44934;BME280;30667;43.614;1.442;2023-02-16T07:22:54;101378.84;;;5.74;100.00
44934;BME280;30667;43.614;1.442;2023-02-16T07:25:20;101380.91;;;5.79;100.00
44934;BME280;30667;43.614;1.442;2023-02-16T07:27:45;101372.19;;;5.83;100.00
44934;BME280;30667;43.614;1.442;2023-02-16T07:30:11;101371.53;;;5.95;100.00
44934;BME280;30667;43.614;1.442;2023-02-16T07:32:37;101377.13;;;5.93;100.00
44934;BME280;30667;43.614;1.442;2023-02-16T07:35:03;101385.00;;;5.88;100.00
44934;BME280;30667;43.614;1.442;2023-02-16T07:37:29;101378.81;;;5.88;100.00
44934;BME280;30667;43.614;1.442;2023-02-16T07:39:55;101386.47;;;5.84;100.00
44934;BME280;30667;43.614;1.442;2023-02-16T07:42:21;101388.09;;;5.85;100.00
44934;BME280;30667;43.614;1.442;2023-02-16T07:44:46;101388.53;;;5.82;100.00
44934;BME280;30667;43.614;1.442;2023-02-16T07:47:12;101397.19;;;5.97;100.00
44934;BME280;30667;43.614;1.442;2023-02-16T07:49:39;101398.00;;;5.98;100.00
44934;BME280;30667;43.614;1.442;2023-02-16T07:52:05;101415.19;;;5.97;100.00
44934;BME280;30667;43.614;1.442;2023-02-16T07:54:31;101414.34;;;6.03;100.00
44934;BME280;30667;43.614;1.442;2023-02-16T07:56:57;101424.47;;;5.88;100.00
44934;BME280;30667;43.614;1.442;2023-02-16T07:59:22;101409.19;;;5.81;100.00
44934;BME280;30667;43.614;1.442;2023-02-16T08:01:48;101411.22;;;5.93;100.00
44934;BME280;30667;43.614;1.442;2023-02-16T08:04:13;101416.59;;;5.93;100.00
44934;BME280;30667;43.614;1.442;2023-02-16T08:06:38;101421.19;;;5.86;100.00
44934;BME280;30667;43.614;1.442;2023-02-16T08:09:04;101425.47;;;5.93;100.00
44934;BME280;30667;43.614;1.442;2023-02-16T08:11:29;101427.56;;;5.98;100.00
44934;BME280;30667;43.614;1.442;2023-02-16T08:13:57;101422.78;;;5.93;100.00
44934;BME280;30667;43.614;1.442;2023-02-16T08:16:25;101417.03;;;5.90;100.00
44934;BME280;30667;43.614;1.442;2023-02-16T08:18:51;101420.34;;;5.85;100.00
44934;BME280;30667;43.614;1.442;2023-02-16T08:21:21;101423.06;;;5.78;100.00
44934;BME280;30667;43.614;1.442;2023-02-16T08:24:06;101427.19;;;5.74;100.00
44934;BME280;30667;43.614;1.442;2023-02-16T08:26:38;101431.94;;;5.79;100.00
44934;BME280;30667;43.614;1.442;2023-02-16T08:29:06;101443.09;;;5.69;100.00
44934;BME280;30667;43.614;1.442;2023-02-16T08:31:34;101433.22;;;5.70;100.00
44934;BME280;30667;43.614;1.442;2023-02-16T08:34:02;101433.94;;;5.90;100.00
44934;BME280;30667;43.614;1.442;2023-02-16T08:36:31;101441.84;;;5.98;100.00
44934;BME280;30667;43.614;1.442;2023-02-16T08:38:57;101432.72;;;5.99;100.00
44934;BME280;30667;43.614;1.442;2023-02-16T08:41:27;101437.81;;;6.21;100.00
44934;BME280;30667;43.614;1.442;2023-02-16T08:43:53;101438.66;;;6.15;100.00
44934;BME280;30667;43.614;1.442;2023-02-16T08:46:19;101441.59;;;6.07;100.00
44934;BME280;30667;43.614;1.442;2023-02-16T08:48:46;101439.53;;;6.02;100.00
44934;BME280;30667;43.614;1.442;2023-02-16T08:51:15;101449.25;;;5.96;100.00
44934;BME280;30667;43.614;1.442;2023-02-16T08:53:42;101455.06;;;6.00;100.00
44934;BME280;30667;43.614;1.442;2023-02-16T08:56:08;101465.16;;;5.98;100.00
44934;BME280;30667;43.614;1.442;2023-02-16T08:58:35;101458.78;;;5.99;100.00
44934;BME280;30667;43.614;1.442;2023-02-16T09:01:08;101462.28;;;5.99;100.00
44934;BME280;30667;43.614;1.442;2023-02-16T09:03:37;101467.00;;;6.17;100.00
44934;BME280;30667;43.614;1.442;2023-02-16T09:06:05;101474.25;;;6.10;100.00
44934;BME280;30667;43.614;1.442;2023-02-16T09:08:31;101475.84;;;6.25;100.00
44934;BME280;30667;43.614;1.442;2023-02-16T09:11:04;101478.91;;;6.28;100.00
44934;BME280;30667;43.614;1.442;2023-02-16T09:13:32;101479.75;;;6.29;100.00
44934;BME280;30667;43.614;1.442;2023-02-16T09:16:20;101490.94;;;6.26;100.00
44934;BME280;30667;43.614;1.442;2023-02-16T09:18:47;101490.97;;;6.12;100.00
44934;BME280;30667;43.614;1.442;2023-02-16T09:21:15;101488.50;;;6.11;100.00
44934;BME280;30667;43.614;1.442;2023-02-16T09:23:43;101484.34;;;6.15;100.00
44934;BME280;30667;43.614;1.442;2023-02-16T09:26:11;101482.66;;;6.27;100.00
44934;BME280;30667;43.614;1.442;2023-02-16T09:28:38;101492.31;;;6.35;100.00
44934;BME280;30667;43.614;1.442;2023-02-16T09:31:20;101489.03;;;6.33;100.00
44934;BME280;30667;43.614;1.442;2023-02-16T09:34:00;101490.00;;;6.52;100.00
44934;BME280;30667;43.614;1.442;2023-02-16T09:36:26;101498.03;;;6.59;100.00
44934;BME280;30667;43.614;1.442;2023-02-16T09:38:53;101502.19;;;6.54;100.00
44934;BME280;30667;43.614;1.442;2023-02-16T09:46:42;101503.56;;;6.70;100.00
44934;BME280;30667;43.614;1.442;2023-02-16T09:49:37;101507.44;;;6.81;100.00
44934;BME280;30667;43.614;1.442;2023-02-16T09:54:54;101505.59;;;6.75;100.00
44934;BME280;30667;43.614;1.442;2023-02-16T10:00:19;101500.41;;;6.80;100.00
44934;BME280;30667;43.614;1.442;2023-02-16T10:05:25;101494.72;;;6.95;100.00
44934;BME280;30667;43.614;1.442;2023-02-16T10:08:00;101497.34;;;7.08;100.00
44934;BME280;30667;43.614;1.442;2023-02-16T10:13:36;101494.31;;;7.23;100.00
44934;BME280;30667;43.614;1.442;2023-02-16T10:16:11;101492.66;;;7.22;100.00
44934;BME280;30667;43.614;1.442;2023-02-16T10:18:44;101495.28;;;7.29;100.00
44934;BME280;30667;43.614;1.442;2023-02-16T10:21:20;101490.69;;;7.36;100.00
44934;BME280;30667;43.614;1.442;2023-02-16T10:23:55;101505.16;;;7.42;100.00
44934;BME280;30667;43.614;1.442;2023-02-16T10:26:46;101501.31;;;7.56;100.00
44934;BME280;30667;43.614;1.442;2023-02-16T10:29:16;101503.78;;;7.58;100.00
44934;BME280;30667;43.614;1.442;2023-02-16T10:34:50;101497.47;;;7.64;100.00
44934;BME280;30667;43.614;1.442;2023-02-16T10:42:47;101504.84;;;7.75;100.00
44934;BME280;30667;43.614;1.442;2023-02-16T10:45:39;101503.72;;;7.83;100.00
44934;BME280;30667;43.614;1.442;2023-02-16T10:48:08;101501.00;;;7.90;100.00
44934;BME280;30667;43.614;1.442;2023-02-16T10:53:19;101509.28;;;8.07;100.00
44934;BME280;30667;43.614;1.442;2023-02-16T10:55:45;101501.97;;;8.14;100.00
44934;BME280;30667;43.614;1.442;2023-02-16T10:58:24;101502.19;;;8.31;100.00
44934;BME280;30667;43.614;1.442;2023-02-16T11:01:14;101500.00;;;8.40;100.00
44934;BME280;30667;43.614;1.442;2023-02-16T11:03:49;101497.69;;;8.62;100.00
44934;BME280;30667;43.614;1.442;2023-02-16T11:06:20;101497.28;;;8.77;100.00
44934;BME280;30667;43.614;1.442;2023-02-16T11:08:49;101493.44;;;8.84;100.00
44934;BME280;30667;43.614;1.442;2023-02-16T11:11:15;101499.19;;;8.88;100.00
44934;BME280;30667;43.614;1.442;2023-02-16T11:13:46;101493.97;;;9.05;100.00
44934;BME280;30667;43.614;1.442;2023-02-16T11:16:22;101488.13;;;9.20;100.00
44934;BME280;30667;43.614;1.442;2023-02-16T11:19:00;101489.88;;;9.26;100.00
44934;BME280;30667;43.614;1.442;2023-02-16T11:21:55;101494.03;;;9.40;100.00
44934;BME280;30667;43.614;1.442;2023-02-16T11:24:34;101487.22;;;9.50;100.00
44934;BME280;30667;43.614;1.442;2023-02-16T11:27:05;101489.56;;;9.58;100.00
44934;BME280;30667;43.614;1.442;2023-02-16T11:29:32;101482.41;;;9.52;100.00
44934;BME280;30667;43.614;1.442;2023-02-16T11:31:58;101485.34;;;9.50;100.00
44934;BME280;30667;43.614;1.442;2023-02-16T11:37:26;101477.09;;;9.57;100.00
44934;BME280;30667;43.614;1.442;2023-02-16T11:39:59;101483.34;;;9.69;100.00
44934;BME280;30667;43.614;1.442;2023-02-16T11:44:56;101480.28;;;9.66;100.00
44934;BME280;30667;43.614;1.442;2023-02-16T11:47:33;101476.50;;;9.67;100.00
44934;BME280;30667;43.614;1.442;2023-02-16T11:52:45;101470.38;;;9.95;100.00
44934;BME280;30667;43.614;1.442;2023-02-16T11:55:30;101468.03;;;9.98;100.00
44934;BME280;30667;43.614;1.442;2023-02-16T11:58:21;101463.22;;;10.00;100.00
44934;BME280;30667;43.614;1.442;2023-02-16T12:10:06;101452.91;;;10.38;100.00
44934;BME280;30667;43.614;1.442;2023-02-16T12:26:48;101437.53;;;10.56;100.00
44934;BME280;30667;43.614;1.442;2023-02-16T12:29:27;101431.31;;;10.72;100.00
44934;BME280;30667;43.614;1.442;2023-02-16T12:45:46;101406.06;;;11.73;100.00
44934;BME280;30667;43.614;1.442;2023-02-16T12:48:44;101400.25;;;11.42;100.00
44934;BME280;30667;43.614;1.442;2023-02-16T12:51:17;101397.69;;;11.36;100.00
44934;BME280;30667;43.614;1.442;2023-02-16T12:53:58;101403.38;;;11.17;100.00
44934;BME280;30667;43.614;1.442;2023-02-16T12:57:14;101403.06;;;11.14;100.00
44934;BME280;30667;43.614;1.442;2023-02-16T12:59:22;101398.59;;;11.24;100.00
44934;BME280;30667;43.614;1.442;2023-02-16T13:01:51;101388.84;;;11.23;100.00
44934;BME280;30667;43.614;1.442;2023-02-16T13:07:14;101380.91;;;11.56;100.00
44934;BME280;30667;43.614;1.442;2023-02-16T13:09:52;101374.97;;;11.59;100.00
44934;BME280;30667;43.614;1.442;2023-02-16T13:12:47;101376.34;;;11.61;100.00
44934;BME280;30667;43.614;1.442;2023-02-16T13:15:34;101365.69;;;11.55;100.00
44934;BME280;30667;43.614;1.442;2023-02-16T13:18:17;101355.84;;;11.49;100.00
44934;BME280;30667;43.614;1.442;2023-02-16T13:20:48;101361.91;;;11.56;100.00
44934;BME280;30667;43.614;1.442;2023-02-16T13:23:39;101353.66;;;11.45;100.00
44934;BME280;30667;43.614;1.442;2023-02-16T13:29:40;101354.03;;;11.54;100.00
44934;BME280;30667;43.614;1.442;2023-02-16T13:44:57;101337.13;;;11.47;100.00
44934;BME280;30667;43.614;1.442;2023-02-16T13:47:36;101339.47;;;11.38;100.00
44934;BME280;30667;43.614;1.442;2023-02-16T13:50:19;101340.44;;;11.49;100.00
44934;BME280;30667;43.614;1.442;2023-02-16T13:52:51;101339.34;;;11.50;100.00
44934;BME280;30667;43.614;1.442;2023-02-16T13:55:37;101333.31;;;11.65;100.00
44934;BME280;30667;43.614;1.442;2023-02-16T13:58:25;101329.00;;;11.91;100.00
44934;BME280;30667;43.614;1.442;2023-02-16T14:00:51;101323.34;;;11.71;100.00
44934;BME280;30667;43.614;1.442;2023-02-16T14:05:52;101328.66;;;11.60;100.00
44934;BME280;30667;43.614;1.442;2023-02-16T14:08:24;101322.88;;;11.79;100.00
44934;BME280;30667;43.614;1.442;2023-02-16T14:18:46;101323.34;;;12.20;97.03
44934;BME280;30667;43.614;1.442;2023-02-16T14:21:26;101327.06;;;12.41;93.34
44934;BME280;30667;43.614;1.442;2023-02-16T14:23:54;101324.44;;;12.46;92.57
44934;BME280;30667;43.614;1.442;2023-02-16T14:26:20;101320.25;;;12.33;93.62
44934;BME280;30667;43.614;1.442;2023-02-16T14:31:21;101319.88;;;12.25;95.09
44934;BME280;30667;43.614;1.442;2023-02-16T14:34:00;101318.81;;;12.26;95.28
44934;BME280;30667;43.614;1.442;2023-02-16T14:36:27;101327.97;;;12.20;96.53
44934;BME280;30667;43.614;1.442;2023-02-16T14:38:55;101325.09;;;12.31;92.38
44934;BME280;30667;43.614;1.442;2023-02-16T14:41:26;101318.78;;;12.53;89.74
44934;BME280;30667;43.614;1.442;2023-02-16T14:46:44;101317.56;;;12.39;89.40
44934;BME280;30667;43.614;1.442;2023-02-16T14:51:45;101308.50;;;12.28;91.83
44934;BME280;30667;43.614;1.442;2023-02-16T15:05:22;101306.72;;;12.39;87.19
44934;BME280;30667;43.614;1.442;2023-02-16T15:07:51;101303.56;;;12.52;86.62
44934;BME280;30667;43.614;1.442;2023-02-16T15:10:25;101299.59;;;12.65;83.95
44934;BME280;30667;43.614;1.442;2023-02-16T15:12:53;101300.16;;;12.67;83.19
44934;BME280;30667;43.614;1.442;2023-02-16T15:15:25;101303.19;;;12.76;81.10
44934;BME280;30667;43.614;1.442;2023-02-16T15:17:53;101303.16;;;12.65;81.73
44934;BME280;30667;43.614;1.442;2023-02-16T15:23:03;101302.66;;;12.41;82.95
44934;BME280;30667;43.614;1.442;2023-02-16T15:25:36;101297.31;;;12.51;81.39
44934;BME280;30667;43.614;1.442;2023-02-16T15:30:39;101304.50;;;12.68;75.50
44934;BME280;30667;43.614;1.442;2023-02-16T15:33:11;101298.81;;;12.69;71.66
44934;BME280;30667;43.614;1.442;2023-02-16T15:35:42;101299.59;;;12.65;76.18
44934;BME280;30667;43.614;1.442;2023-02-16T15:40:37;101301.25;;;12.66;73.73
44934;BME280;30667;43.614;1.442;2023-02-16T15:43:09;101297.19;;;12.68;76.34
44934;BME280;30667;43.614;1.442;2023-02-16T15:45:40;101295.84;;;12.71;74.98